Airfield :
LOGIN :

Register | Disclaimer

   EN    FR    IT 

 










Legend :    VFR   Marginal VFR   IFR   Intensive IFR   Very Intensive IFR
Visi :
Ceiling :
>= 8 km
>= 3000ft
5 to 8 km
1000 to 3000 ft
1500m to 5 km
500 to 1000 ft
800 to 1500m
200 to 500 ft
< 800m
< 200 ft
Symbols :   Thunderstorms  Fog  Heavy snow  Heavy precipitations  Wind > 20 kt
SIGMETs :     Misc.  Thunderstorms  Icing  Turbulence  Mountain Waves  Volcanic Ashes







- Airport Elevation : 63 ft
- IATA code : BZM


EHWO - Woensdrecht Airbase

CURRENT METAR :
  • 220925Z AUTO 26016KT 220V300 9999 OVC360 23/13 Q1023 BLU 24010KT CAVOK TEMPO 24010G20KT

EXPIRED METARs :
  • 220855Z AUTO 25013KT 210V290 9999 OVC260 23/14 Q1023 BLU 24010KT CAVOK TEMPO 24010G20KT
  • 220830Z AUTO 24013KT 220V280 9999 OVC260 22/13 Q1023 BLU 24010KT CAVOK TEMPO 24010G20KT
  • 220755Z AUTO 24009KT 210V270 9999 OVC300 21/13 Q1023 BLU 24010KT CAVOK
  • 220725Z AUTO 24010KT 190V260 9999 FEW190 OVC330 20/13 Q1022 BLU 24010KT CAVOK
  • 220656Z AUTO 24010KT 210V270 9999 OVC330 19/13 Q1022 BLU 24010KT CAVOK
  • 220625Z AUTO 24008KT 9999 BKN330 BKN390 18/13 Q1022 BLU 23007KT CAVOK

TAF TAF EHWO
Valid from the 22 at 09:00 until the 22 at 21:00 UTC


220846Z 2209/2221 25012G22KT CAVOK
BECMG 2214/2216 27005KT
BECMG 2219/2221 VRB01KT
No reported NOTAMs for that airfield.



MET'MAP, your aeronautical weather chart ! - Copyright ORBIFLY December 2007 - Disclaimer

ORBIFLY MET'MAP TEAM :

Programming & Development : Alexandra Zaïnal
Concept & Development : Baudouin d'Aumeries
Co-Development & Prog : Marc-Olivier Méhu
Technical & hardware support : Manuel Goepfert

Contact : metmap@orbifly.com




SOURCES & CREDITS :

   NOAA